MUVR/VRA METAR and TAF weather

Enter ICAO airport designator
Station Type Date Time Source
MUVR METAR 2020/09/22 03:50 UTC NOAA

MUVR 220350Z 07006KT 9000 FEW020 26/25 Q1014


Station Type Date Time Source
MUVR Decoded METAR 2020/09/22 03:50 UTC NOAA

Varadero, Matanzas, Cuba (MUVR) 23-08N 081-17W 3M
Sep 21, 2020 - 11:50 PM EDT / 2020.09.22 0350 UTC
Wind: from the ENE (070 degrees) at 7 MPH (6 KT):0
Visibility: 5 mile(s):0
Sky conditions: mostly clear
Temperature: 78 F (26 C)
Dew Point: 77 F (25 C)
Relative Humidity: 94%
Pressure (altimeter): 29.94 in. Hg (1014 hPa)
ob: MUVR 220350Z 07006KT 9000 FEW020 26/25 Q1014
cycle: 4

Station Type Date Time Source
MUVR TAF 2020/09/21 18:03 UTC NOAA

TAF MUVR 211700Z 2118/2218 03008KT 9000 SCT020
TEMPO 2122/2203 VRB10KT 4000 SHRA SCT018CB BKN020
BECMG 2204/2206 VRB03KT
TEMPO 2214/2218 VRB10KT 5000 SHRA SCT018CB BKN020

Example: see airport list